Time;durP1;ratioP1;P1;durP2;ratioP2;P2;SDS_P1;SDS_P2;PMS_P1;PMS_P2;Temp;Humidity;BMP_temperature;BMP_pressure;BME280_temperature;BME280_humidity;BME280_pressure;Samples;Min_cycle;Max_cycle;Signal;HPM_P1;HPM_P2
2021/07/15 10:13:25;;;;;;;4.13;3.73;;;;;;;26.74;74.53;98606.65;125149;1092;64287;-80
2021/07/15 10:15:52;;;;;;;8.05;4.85;;;;;;;26.86;73.75;98605.76;125117;1093;64296;-80
2021/07/15 10:22:08;;;;;;;4.80;4.40;;;;;;;27.04;72.94;98606.92;125153;1093;64268;-80
2021/07/15 10:24:35;;;;;;;7.83;5.10;;;;;;;27.18;73.47;98615.95;124982;1093;64274;-80
2021/07/15 10:27:06;;;;;;;4.90;4.40;;;;;;;27.45;73.57;98613.88;125091;1093;64191;-82
2021/07/15 10:29:33;;;;;;;5.63;5.00;;;;;;;27.74;71.93;98602.27;125032;1093;64281;-80
2021/07/15 10:32:00;;;;;;;5.83;3.77;;;;;;;28.03;72.07;98597.20;125117;1093;64242;-80
2021/07/15 10:34:28;;;;;;;5.00;3.93;;;;;;;28.34;72.04;98606.39;124993;1093;64245;-80
2021/07/15 10:36:58;;;;;;;6.23;4.40;;;;;;;28.51;70.48;98604.74;125143;1093;64271;-80
2021/07/15 10:39:28;;;;;;;4.50;3.90;;;;;;;28.53;70.04;98599.88;125094;1093;64312;-81
2021/07/15 10:41:57;;;;;;;6.63;4.40;;;;;;;28.46;69.06;98593.63;125140;1093;64392;-81
2021/07/15 10:44:28;;;;;;;5.60;5.00;;;;;;;28.37;68.96;98587.58;125105;1093;64270;-81
2021/07/15 10:46:57;;;;;;;6.25;4.30;;;;;;;28.18;68.67;98583.16;125136;1093;64255;-81
2021/07/15 10:49:24;;;;;;;6.53;4.67;;;;;;;28.15;68.71;98572.66;125114;1093;64290;-81
2021/07/15 10:51:55;;;;;;;5.37;4.20;;;;;;;28.16;69.15;98577.06;125078;1092;64650;-81
2021/07/15 10:54:23;;;;;;;7.77;6.13;;;;;;;28.11;66.83;98579.64;124988;1092;64223;-82
2021/07/15 10:56:51;;;;;;;6.87;5.43;;;;;;;27.87;67.72;98560.27;125157;1093;64316;-82
2021/07/15 10:59:26;;;;;;;6.10;5.50;;;;;;;27.63;68.65;98556.45;125081;1093;64287;-82
2021/07/15 11:01:54;;;;;;;6.47;5.83;;;;;;;27.47;67.71;98560.59;125145;1093;64223;-80
2021/07/15 11:04:42;;;;;;;7.73;6.93;;;;;;;27.39;67.90;98565.50;124968;1093;64300;-80
2021/07/15 11:07:36;;;;;;;7.93;6.27;;;;;;;27.46;68.33;98566.27;125121;1093;64428;-80
2021/07/15 11:10:21;;;;;;;8.40;6.35;;;;;;;27.71;68.06;98563.56;125099;1093;64219;-81
2021/07/15 11:13:00;;;;;;;7.83;6.77;;;;;;;27.98;67.73;98562.27;125036;1093;64277;-81
2021/07/15 11:15:45;;;;;;;10.97;7.40;;;;;;;28.28;68.16;98567.04;125120;1093;64192;-81
2021/07/15 11:18:43;;;;;;;9.67;7.70;;;;;;;28.61;66.47;98571.31;125076;1093;64342;-81
2021/07/15 11:21:32;;;;;;;8.07;6.70;;;;;;;28.56;65.16;98571.16;125153;1093;64338;-81
2021/07/15 11:24:06;;;;;;;7.87;6.87;;;;;;;28.49;64.87;98557.55;125131;1093;64290;-81
2021/07/15 11:26:41;;;;;;;8.23;7.43;;;;;;;28.56;65.61;98557.45;125132;1093;64271;-81
2021/07/15 11:29:09;;;;;;;9.30;7.83;;;;;;;28.60;64.83;98561.43;125133;1092;64293;-81
2021/07/15 11:31:53;;;;;;;11.43;7.83;;;;;;;28.49;64.16;98562.17;125095;1093;64274;-81
2021/07/15 11:34:36;;;;;;;9.63;7.30;;;;;;;28.41;64.27;98555.92;125052;1093;64294;-80
2021/07/15 11:37:25;;;;;;;11.33;8.47;;;;;;;28.23;65.37;98555.92;125114;1093;64285;-80
2021/07/15 11:39:52;;;;;;;8.83;7.90;;;;;;;28.26;65.44;98554.63;125121;1092;64271;-80
2021/07/15 11:42:21;;;;;;;8.57;7.57;;;;;;;28.39;66.53;98551.73;125045;1093;64267;-81
2021/07/15 11:44:58;;;;;;;11.23;7.40;;;;;;;28.56;65.72;98541.84;125139;1093;64268;-80
2021/07/15 11:47:51;;;;;;;10.43;7.27;;;;;;;28.66;65.64;98531.16;125139;1092;64303;-80
2021/07/15 11:50:31;;;;;;;8.37;7.57;;;;;;;28.84;65.30;98530.30;125045;1093;64268;-83
2021/07/15 11:53:19;;;;;;;9.97;9.03;;;;;;;29.07;65.81;98523.27;125347;1093;64244;-79
2021/07/15 11:55:52;;;;;;;10.27;8.27;;;;;;;29.23;65.08;98522.59;124935;1092;64187;-78
2021/07/15 11:58:49;;;;;;;9.45;8.35;;;;;;;29.28;64.34;98519.98;124947;1092;64290;-81
2021/07/15 12:01:41;;;;;;;8.95;8.15;;;;;;;29.41;63.97;98507.95;125135;1092;64344;-77
2021/07/15 12:04:10;;;;;;;14.73;8.73;;;;;;;29.16;62.09;98513.61;125165;1093;64191;-82
2021/07/15 12:06:43;;;;;;;10.53;8.57;;;;;;;28.97;63.13;98511.98;125374;1093;64302;-83
2021/07/15 12:09:14;;;;;;;9.33;8.33;;;;;;;28.83;63.14;98511.31;125042;1093;64374;-82
2021/07/15 12:11:43;;;;;;;11.50;9.47;;;;;;;28.87;64.32;98501.56;124971;1093;64223;-81
2021/07/15 12:14:11;;;;;;;11.93;9.63;;;;;;;28.87;62.33;98501.56;125133;1093;64286;-80
2021/07/15 12:16:42;;;;;;;13.60;8.97;;;;;;;28.76;63.56;98503.20;125036;1093;64220;-81
2021/07/15 12:19:11;;;;;;;9.77;8.33;;;;;;;28.78;63.81;98505.69;125116;1093;64306;-76
2021/07/15 12:21:39;;;;;;;8.63;7.77;;;;;;;28.84;64.49;98499.30;124929;1093;64332;-75
2021/07/15 12:24:18;;;;;;;9.67;8.67;;;;;;;28.92;65.26;98500.88;125010;1093;64300;-75
2021/07/15 12:26:53;;;;;;;8.57;7.67;;;;;;;28.95;63.91;98501.23;125024;1093;64278;-75
2021/07/15 12:29:19;;;;;;;8.77;7.73;;;;;;;28.95;64.19;98501.23;125019;1093;64268;-74
2021/07/15 12:31:48;;;;;;;9.23;8.33;;;;;;;29.03;64.85;98505.55;124990;1093;64276;-75
2021/07/15 12:34:15;;;;;;;8.35;7.55;;;;;;;29.09;64.20;98504.64;125087;1093;64312;-75
2021/07/15 12:36:50;;;;;;;9.20;8.33;;;;;;;28.96;63.36;98497.41;125090;1093;64357;-75
2021/07/15 12:39:20;;;;;;;8.27;7.40;;;;;;;28.91;63.74;98499.18;125121;1093;64338;-75
2021/07/15 12:41:47;;;;;;;7.97;6.97;;;;;;;28.96;64.12;98485.60;125094;1093;64284;-76
2021/07/15 12:44:16;;;;;;;7.75;7.00;;;;;;;29.00;63.18;98490.39;125152;1093;64244;-77
2021/07/15 12:46:45;;;;;;;9.25;7.80;;;;;;;28.95;62.68;98492.17;125124;1093;64179;-77
2021/07/15 12:49:14;;;;;;;;;;;;;;;28.86;63.58;98491.67;125090;1093;64271;-76
2021/07/15 12:51:41;;;;;;;10.70;7.97;;;;;;;28.91;63.68;98491.78;125059;1093;65806;-76
2021/07/15 12:54:09;;;;;;;10.80;7.67;;;;;;;28.89;63.45;98489.29;125035;1092;64271;-76
2021/07/15 12:56:39;;;;;;;9.50;7.00;;;;;;;28.85;62.99;98481.75;125076;1093;64322;-76
2021/07/15 12:59:09;;;;;;;8.73;7.80;;;;;;;28.82;64.31;98479.48;124883;1093;64296;-75
2021/07/15 13:01:44;;;;;;;8.77;7.87;;;;;;;28.78;63.65;98470.90;125020;1093;64396;-75
2021/07/15 13:04:12;;;;;;;10.60;8.20;;;;;;;28.75;63.83;98476.82;125080;1093;64427;-75
2021/07/15 13:06:42;;;;;;;9.87;8.17;;;;;;;28.67;63.94;98477.16;125036;1093;64251;-75
2021/07/15 13:14:49;;;;;;;8.65;7.68;;;;;;;28.60;64.28;98480.00;124865;1093;64184;-75
2021/07/15 13:17:30;;;;;;;12.67;8.43;;;;;;;28.65;63.75;98482.06;124841;1093;64284;-75
2021/07/15 13:20:10;;;;;;;9.33;7.30;;;;;;;28.65;63.09;98480.14;125006;1093;64276;-75
2021/07/15 13:22:45;;;;;;;8.57;6.63;;;;;;;28.65;62.58;98471.09;125055;1093;64290;-75
2021/07/15 13:25:18;;;;;;;10.83;7.90;;;;;;;28.64;63.11;98472.14;124883;1093;64426;-76
2021/07/15 13:27:46;;;;;;;9.50;6.83;;;;;;;28.71;61.95;98475.63;124997;1093;64316;-76
2021/07/15 13:30:17;;;;;;;7.95;6.70;;;;;;;28.78;63.26;98467.30;124966;1093;64280;-75
2021/07/15 13:32:44;;;;;;;7.57;6.80;;;;;;;28.80;62.10;98476.96;125053;1093;64226;-75
2021/07/15 13:35:14;;;;;;;8.87;7.17;;;;;;;28.81;61.81;98472.34;125050;1093;64286;-75
2021/07/15 13:37:43;;;;;;;8.57;7.77;;;;;;;28.82;61.26;98479.48;125059;1093;64279;-76
2021/07/15 13:40:20;;;;;;;8.93;7.80;;;;;;;28.75;62.42;98471.34;125089;1093;64217;-76
2021/07/15 13:42:49;;;;;;;8.30;6.87;;;;;;;28.83;61.68;98478.41;124885;1093;64396;-76
2021/07/15 13:45:24;;;;;;;;;;;;;;;28.89;61.64;98475.58;124965;1093;64278;-76
2021/07/15 13:47:51;;;;;;;11.50;6.33;;;;;;;28.93;61.03;98469.62;125008;1093;64387;-76
2021/07/15 13:50:20;;;;;;;9.87;5.70;;;;;;;29.00;60.98;98473.11;125059;1093;64249;-76
2021/07/15 13:52:51;;;;;;;7.37;5.80;;;;;;;29.05;60.39;98465.03;124979;1092;64214;-76
2021/07/15 13:55:23;;;;;;;10.00;6.33;;;;;;;29.11;60.27;98469.57;125050;1093;64339;-76
2021/07/15 13:57:52;;;;;;;7.83;6.13;;;;;;;29.27;60.88;98470.80;125030;1093;64265;-76
2021/07/15 14:00:30;;;;;;;;;;;;;;;29.34;59.93;98456.97;125065;1093;64197;-76
2021/07/15 14:03:00;;;;;;;9.13;6.83;;;;;;;29.35;59.59;98453.14;125019;1093;64297;-75
2021/07/15 14:05:34;;;;;;;8.00;7.07;;;;;;;29.29;59.83;98457.67;125021;1093;64297;-76
2021/07/15 14:08:02;;;;;;;7.00;6.40;;;;;;;29.33;59.89;98469.84;125021;1093;64348;-76
2021/07/15 14:10:30;;;;;;;8.70;6.87;;;;;;;29.29;58.90;98463.16;124989;1093;64226;-76
2021/07/15 14:12:59;;;;;;;9.07;6.87;;;;;;;29.30;59.44;98467.56;125062;1093;64360;-76
2021/07/15 14:15:28;;;;;;;11.00;7.53;;;;;;;29.26;59.30;98472.70;125006;1093;64268;-76
2021/07/15 14:18:06;;;;;;;8.40;7.20;;;;;;;29.26;59.33;98475.45;125061;1092;64321;-76
2021/07/15 14:20:55;;;;;;;10.00;7.17;;;;;;;29.19;59.20;98480.20;124953;1093;64351;-76
2021/07/15 14:23:27;;;;;;;10.73;7.83;;;;;;;29.23;59.78;98472.36;124997;1093;64271;-76
2021/07/15 14:25:58;;;;;;;8.97;7.23;;;;;;;29.24;59.02;98468.53;125008;1093;64341;-76
2021/07/15 14:28:25;;;;;;;11.60;8.70;;;;;;;29.18;59.31;98472.23;125095;1093;64271;-76
2021/07/15 14:30:52;;;;;;;9.57;7.90;;;;;;;29.08;59.83;98476.37;125027;1093;64410;-76
2021/07/15 14:33:19;;;;;;;10.87;7.27;;;;;;;28.88;59.78;98473.91;124904;1093;64329;-76
2021/07/15 14:35:48;;;;;;;11.30;7.40;;;;;;;28.65;59.13;98471.09;125023;1093;64313;-76
2021/07/15 14:38:16;;;;;;;8.87;6.87;;;;;;;28.47;59.52;98471.95;125048;1093;64291;-75
2021/07/15 14:40:45;;;;;;;8.55;6.90;;;;;;;28.34;58.80;98469.36;124937;1093;64261;-75
2021/07/15 14:43:13;;;;;;;;;;;;;;;28.16;58.50;98472.95;125149;1093;64263;-75
2021/07/15 14:45:40;;;;;;;8.20;6.87;;;;;;;28.02;58.69;98464.05;125076;1092;64428;-75
2021/07/15 14:48:08;;;;;;;10.03;7.23;;;;;;;27.93;59.62;98479.10;125017;1093;64690;-76
2021/07/15 14:50:35;;;;;;;10.77;8.53;;;;;;;27.88;59.85;98471.56;124956;1092;64191;-75
2021/07/15 14:53:03;;;;;;;13.20;9.33;;;;;;;28.01;60.59;98468.67;124952;1093;64306;-76
2021/07/15 14:55:32;;;;;;;12.07;9.27;;;;;;;28.26;60.82;98465.02;125077;1093;64188;-76
2021/07/15 14:57:59;;;;;;;9.77;8.87;;;;;;;28.47;60.50;98469.22;125033;1093;64415;-75
2021/07/15 15:00:26;;;;;;;9.67;8.67;;;;;;;28.65;60.33;98460.95;125022;1093;64322;-75
2021/07/15 15:02:54;;;;;;;9.50;8.03;;;;;;;28.85;59.07;98460.64;125015;1093;64303;-76
2021/07/15 15:05:25;;;;;;;11.37;7.60;;;;;;;28.89;58.73;98461.03;125045;1093;64540;-75
2021/07/15 15:07:53;;;;;;;12.90;9.03;;;;;;;28.99;59.06;98463.18;125042;1093;64284;-75
2021/07/15 15:10:21;;;;;;;10.93;7.80;;;;;;;29.12;59.21;98454.77;124997;1093;64236;-75
2021/07/15 15:12:48;;;;;;;8.47;7.63;;;;;;;29.15;57.91;98442.48;124942;1093;64249;-74
2021/07/15 15:15:16;;;;;;;11.00;8.80;;;;;;;28.93;57.43;98445.76;124930;1093;64274;-75
2021/07/15 15:17:43;;;;;;;8.95;8.05;;;;;;;28.73;57.96;98456.22;124847;1093;64357;-75
2021/07/15 15:20:12;;;;;;;10.70;7.83;;;;;;;28.48;57.44;98454.43;124995;1093;64251;-75
2021/07/15 15:22:41;;;;;;;9.23;7.48;;;;;;;28.31;57.76;98456.13;125038;1093;64293;-75
2021/07/15 15:25:10;;;;;;;9.53;8.53;;;;;;;28.20;57.90;98457.70;124973;1093;64402;-75
2021/07/15 15:27:38;;;;;;;10.28;7.83;;;;;;;28.10;58.74;98450.05;125032;1093;64211;-76
2021/07/15 15:30:08;;;;;;;10.00;8.10;;;;;;;28.05;58.90;98447.16;125107;1093;64271;-76
2021/07/15 15:32:37;;;;;;;10.70;8.80;;;;;;;27.98;59.28;98449.95;125067;1093;64224;-76
2021/07/15 15:35:06;;;;;;;14.50;9.95;;;;;;;27.87;59.94;98453.47;125004;1092;64315;-75
2021/07/15 15:37:34;;;;;;;10.47;9.07;;;;;;;27.78;60.81;98454.81;125036;1093;64274;-76
2021/07/15 15:40:02;;;;;;;10.43;9.17;;;;;;;27.71;60.54;98452.13;124973;1093;64302;-76
2021/07/15 15:42:29;;;;;;;11.33;9.33;;;;;;;27.65;61.75;98449.44;125067;1093;64393;-75
2021/07/15 15:44:56;;;;;;;11.67;9.13;;;;;;;27.57;62.39;98451.44;124979;1093;64195;-77
2021/07/15 15:47:24;;;;;;;11.07;9.23;;;;;;;27.48;62.65;98447.30;125026;1092;64335;-76
2021/07/15 15:49:51;;;;;;;10.77;8.13;;;;;;;27.43;63.34;98440.83;125064;1093;64191;-75
2021/07/15 15:52:19;;;;;;;12.00;9.43;;;;;;;27.45;63.78;98442.28;124863;1093;64291;-75
2021/07/15 15:54:47;;;;;;;11.83;8.77;;;;;;;27.55;64.03;98434.39;124849;1093;64280;-75
2021/07/15 15:57:15;;;;;;;9.70;8.80;;;;;;;27.62;63.79;98434.34;124985;1093;64273;-75
2021/07/15 15:59:42;;;;;;;9.67;8.77;;;;;;;27.78;64.05;98438.38;125006;1093;64276;-75
2021/07/15 16:02:10;;;;;;;10.83;9.73;;;;;;;27.85;64.26;98450.11;125009;1092;64351;-75
2021/07/15 16:04:37;;;;;;;11.77;9.90;;;;;;;27.87;64.96;98449.89;125026;1093;64284;-75
2021/07/15 16:07:05;;;;;;;10.90;9.30;;;;;;;27.92;64.38;98444.57;125125;1093;64271;-75
2021/07/15 16:09:32;;;;;;;10.80;8.93;;;;;;;27.91;63.99;98449.22;125068;1093;64378;-75
2021/07/15 16:12:00;;;;;;;10.55;9.45;;;;;;;27.82;63.67;98453.31;125152;1093;64281;-75
2021/07/15 16:14:27;;;;;;;10.77;9.10;;;;;;;27.74;63.95;98462.63;125058;1093;64646;-75
2021/07/15 16:16:56;;;;;;;12.23;9.60;;;;;;;27.72;63.89;98469.39;125057;1093;64171;-76
2021/07/15 16:19:24;;;;;;;12.60;10.05;;;;;;;27.72;63.11;98472.13;124948;1093;64248;-76
2021/07/15 16:21:52;;;;;;;10.33;9.17;;;;;;;27.65;63.54;98480.42;124877;1093;64308;-76
2021/07/15 16:24:20;;;;;;;10.90;8.85;;;;;;;27.68;63.67;98481.88;125036;1093;64216;-76
2021/07/15 16:26:50;;;;;;;10.40;8.90;;;;;;;27.68;64.58;98481.88;125044;1093;64290;-76
2021/07/15 16:29:19;;;;;;;10.60;9.20;;;;;;;27.65;64.88;98472.20;125030;1093;64271;-76
2021/07/15 16:31:45;;;;;;;12.50;8.70;;;;;;;27.64;65.46;98484.20;125019;1092;64271;-76
2021/07/15 16:34:13;;;;;;;10.45;8.55;;;;;;;27.65;65.94;98487.77;124976;1093;64245;-76
2021/07/15 16:36:39;;;;;;;11.03;9.07;;;;;;;27.66;66.64;98492.20;124987;1093;64248;-76
2021/07/15 16:39:09;;;;;;;11.47;8.63;;;;;;;27.73;66.42;98491.08;125012;1093;64268;-76
2021/07/15 16:41:38;;;;;;;9.37;8.00;;;;;;;27.92;66.31;98483.75;125021;1093;64271;-76
2021/07/15 16:44:06;;;;;;;10.05;8.83;;;;;;;28.24;66.32;98475.38;125042;1093;64188;-76
2021/07/15 16:46:33;;;;;;;10.03;9.13;;;;;;;28.43;65.78;98479.78;124995;1093;64425;-76
2021/07/15 16:49:00;;;;;;;11.43;8.87;;;;;;;28.46;64.52;98470.27;125018;1091;64331;-76
2021/07/15 16:51:27;;;;;;;10.67;8.53;;;;;;;28.43;64.86;98481.66;124986;1093;64241;-75
2021/07/15 16:57:37;;;;;;;11.93;10.73;;;;;;;28.44;64.06;98469.69;125036;1093;64219;-75
2021/07/15 17:00:07;;;;;;;14.68;11.43;;;;;;;28.72;63.87;98471.81;125065;1093;64191;-76
2021/07/15 17:02:35;;;;;;;9.03;8.13;;;;;;;29.03;62.47;98465.23;125061;1093;64303;-75
2021/07/15 17:05:03;;;;;;;9.80;8.80;;;;;;;29.16;62.62;98469.70;124999;1093;64271;-75
2021/07/15 17:07:30;;;;;;;10.33;8.70;;;;;;;29.32;61.79;98469.01;125046;1093;64192;-75
2021/07/15 17:09:59;;;;;;;10.57;9.40;;;;;;;29.46;61.46;98468.78;125005;1093;64265;-75
2021/07/15 17:12:26;;;;;;;10.70;9.00;;;;;;;29.43;60.98;98456.36;125004;1093;64271;-74
2021/07/15 17:14:53;;;;;;;12.00;10.27;;;;;;;29.51;61.34;98455.17;125048;1093;64240;-76
2021/07/15 17:17:20;;;;;;;10.90;9.10;;;;;;;29.65;60.59;98462.14;125041;1093;64223;-75
2021/07/15 17:19:46;;;;;;;12.67;8.87;;;;;;;29.62;59.97;98468.09;124897;1093;64290;-75
2021/07/15 17:22:13;;;;;;;10.80;9.13;;;;;;;29.66;60.75;98462.98;125015;1093;64245;-74
2021/07/15 17:24:40;;;;;;;11.70;9.73;;;;;;;29.78;60.22;98473.94;124969;1093;64194;-75
2021/07/15 17:27:07;;;;;;;10.13;9.13;;;;;;;29.86;59.91;98474.44;125011;1093;64447;-75
2021/07/15 17:29:34;;;;;;;10.83;9.33;;;;;;;30.01;59.79;98470.34;124997;1093;64285;-75
2021/07/15 17:32:01;;;;;;;11.57;9.17;;;;;;;30.11;59.91;98468.64;125033;1093;64191;-75
2021/07/15 17:34:28;;;;;;;9.63;8.10;;;;;;;30.13;58.90;98469.25;124890;1093;64277;-76
2021/07/15 17:36:54;;;;;;;9.80;7.87;;;;;;;29.94;59.03;98471.31;125017;1093;64288;-76
2021/07/15 17:39:21;;;;;;;9.20;8.27;;;;;;;29.88;58.38;98483.25;124902;1093;64324;-76
2021/07/15 17:41:48;;;;;;;9.07;7.30;;;;;;;29.70;58.24;98478.74;125030;1093;64300;-76
2021/07/15 17:44:19;;;;;;;10.47;7.90;;;;;;;29.62;58.85;98476.33;125047;1092;64287;-75
2021/07/15 17:46:46;;;;;;;10.53;8.47;;;;;;;29.41;59.27;98466.77;125052;1093;64233;-75
2021/07/15 17:49:14;;;;;;;10.33;7.47;;;;;;;29.23;59.97;98470.44;124971;1093;64268;-76
2021/07/15 17:51:41;;;;;;;11.70;8.30;;;;;;;29.09;59.98;98485.43;125057;1093;64379;-75
2021/07/15 17:54:09;;;;;;;11.05;9.20;;;;;;;28.91;60.36;98499.18;124924;1093;64244;-75
2021/07/15 17:56:37;;;;;;;10.77;9.43;;;;;;;28.69;60.24;98504.36;125023;1093;64268;-75
2021/07/15 17:59:07;;;;;;;11.77;10.40;;;;;;;28.52;60.73;98501.43;125013;1093;64268;-75
2021/07/15 18:01:35;;;;;;;11.25;9.95;;;;;;;28.44;61.20;98500.67;125002;1093;64433;-74
2021/07/15 18:04:06;;;;;;;11.50;10.30;;;;;;;28.29;61.31;98483.74;125024;1093;64402;-75
2021/07/15 18:06:35;;;;;;;12.07;10.43;;;;;;;28.07;61.34;98482.52;125065;1093;64284;-75
2021/07/15 18:09:04;;;;;;;12.13;10.73;;;;;;;27.86;61.59;98478.33;125070;1093;64285;-76
2021/07/15 18:11:31;;;;;;;11.63;10.43;;;;;;;27.69;62.30;98498.05;125046;1093;64292;-76
2021/07/15 18:13:59;;;;;;;14.03;11.13;;;;;;;27.62;62.43;98508.25;124899;1093;64377;-75
2021/07/15 18:16:26;;;;;;;13.10;11.77;;;;;;;27.56;62.59;98509.13;125043;1093;64239;-76
2021/07/15 18:18:53;;;;;;;13.30;11.90;;;;;;;27.46;63.03;98511.53;124992;1093;64290;-75
2021/07/15 18:21:20;;;;;;;12.50;11.17;;;;;;;27.30;62.94;98500.08;125070;1093;64363;-75
2021/07/15 18:23:47;;;;;;;18.00;13.10;;;;;;;27.17;63.10;98499.31;124879;1093;64190;-76
2021/07/15 18:26:14;;;;;;;13.70;12.30;;;;;;;27.03;63.38;98518.56;124918;1092;64364;-75
2021/07/15 18:28:42;;;;;;;13.20;11.90;;;;;;;26.93;64.16;98523.67;124997;1093;64299;-75
2021/07/15 18:31:08;;;;;;;12.67;11.07;;;;;;;26.87;64.83;98525.39;125017;1093;64244;-74
2021/07/15 18:33:36;;;;;;;12.10;10.73;;;;;;;26.81;65.36;98514.51;125014;1093;64188;-76
2021/07/15 18:36:04;;;;;;;15.83;12.03;;;;;;;26.78;65.63;98507.58;124947;1093;64761;-76
2021/07/15 18:38:31;;;;;;;15.70;12.33;;;;;;;26.73;66.49;98503.83;125091;1093;64245;-75
2021/07/15 18:40:59;;;;;;;14.33;12.63;;;;;;;26.63;66.59;98512.49;125053;1092;64284;-75
2021/07/15 18:43:26;;;;;;;14.67;12.70;;;;;;;26.51;66.70;98525.95;125047;1093;64306;-75
2021/07/15 18:45:54;;;;;;;15.90;12.53;;;;;;;26.38;66.82;98536.94;125055;1093;64192;-75
2021/07/15 18:48:21;;;;;;;13.70;12.30;;;;;;;26.26;67.80;98536.78;125108;1093;64265;-76
2021/07/15 18:50:47;;;;;;;14.03;11.97;;;;;;;26.15;68.08;98527.36;125072;1092;64382;-76
2021/07/15 18:53:14;;;;;;;16.03;12.07;;;;;;;26.03;68.18;98518.14;124926;1093;64277;-75
2021/07/15 18:55:41;;;;;;;16.07;12.67;;;;;;;25.94;68.54;98519.44;125019;1093;64191;-75
2021/07/15 18:58:08;;;;;;;18.70;13.70;;;;;;;25.87;68.77;98521.33;125072;1093;64284;-75
2021/07/15 19:00:34;;;;;;;17.10;13.63;;;;;;;25.79;69.03;98525.92;124996;1093;64214;-76
2021/07/15 19:03:01;;;;;;;16.70;13.83;;;;;;;25.72;69.17;98536.00;125015;1093;64300;-76
2021/07/15 19:05:28;;;;;;;15.70;14.10;;;;;;;25.67;69.92;98562.25;125016;1093;64242;-76
2021/07/15 19:07:54;;;;;;;18.60;13.70;;;;;;;25.56;70.28;98572.75;125000;1093;64251;-76
2021/07/15 19:10:23;;;;;;;17.30;15.25;;;;;;;25.52;70.71;98565.22;125033;1093;64161;-76
2021/07/15 19:12:52;;;;;;;14.80;13.20;;;;;;;25.47;70.91;98565.00;125061;1093;64271;-76
2021/07/15 19:15:26;;;;;;;22.63;16.77;;;;;;;25.40;71.34;98557.63;124995;1093;65877;-76
2021/07/15 19:17:53;;;;;;;27.17;22.87;;;;;;;25.37;71.95;98557.22;125001;1093;64418;-76
2021/07/15 19:20:22;;;;;;;32.80;28.80;;;;;;;25.33;72.25;98559.54;125043;1093;64274;-76
2021/07/15 19:22:49;;;;;;;30.57;27.30;;;;;;;25.31;72.59;98558.89;125032;1092;64290;-76
2021/07/15 19:25:16;;;;;;;19.97;17.87;;;;;;;25.30;72.99;98573.56;125022;1093;64316;-76
2021/07/15 19:27:44;;;;;;;19.23;16.73;;;;;;;25.27;73.10;98589.52;125005;1093;64319;-76
2021/07/15 19:30:14;;;;;;;19.90;17.50;;;;;;;25.19;73.42;98610.47;125033;1093;64283;-76
2021/07/15 19:32:42;;;;;;;19.53;17.20;;;;;;;25.12;73.81;98633.28;125008;1093;64162;-75
